createdAt,value
2018-09-27T00:00:30.933Z,1029.27
2018-09-27T00:01:41.064Z,1029.27
2018-09-27T00:02:51.191Z,1029.21
2018-09-27T00:04:01.095Z,1029.25
2018-09-27T00:05:11.298Z,1029.24
2018-09-27T00:06:21.504Z,1029.23
2018-09-27T00:07:31.661Z,1029.26
2018-09-27T00:08:41.829Z,1029.21
2018-09-27T00:09:51.749Z,1029.25
2018-09-27T00:11:01.638Z,1029.3
2018-09-27T00:12:11.261Z,1029.33
2018-09-27T00:13:21.461Z,1029.25
2018-09-27T00:14:31.121Z,1029.3
2018-09-27T00:15:41.285Z,1029.33
2018-09-27T00:16:51.485Z,1029.32
2018-09-27T00:18:01.654Z,1029.34
2018-09-27T00:19:11.548Z,1029.3
2018-09-27T00:20:21.437Z,1029.36
2018-09-27T00:21:31.632Z,1029.36
2018-09-27T00:22:41.831Z,1029.32
2018-09-27T00:23:52.008Z,1029.32
2018-09-27T00:25:01.828Z,1029.38
2018-09-27T00:26:11.725Z,1029.32
2018-09-27T00:27:21.342Z,1029.34
2018-09-27T00:28:31.244Z,1029.3
2018-09-27T00:29:41.424Z,1029.36
2018-09-27T00:30:51.312Z,1029.3
2018-09-27T00:32:01.205Z,1029.28
2018-09-27T00:33:10.896Z,1029.32
2018-09-27T00:34:20.792Z,1029.31
2018-09-27T00:35:30.975Z,1029.22
2018-09-27T00:36:40.863Z,1029.32
2018-09-27T00:37:50.482Z,1029.32
2018-09-27T00:39:00.379Z,1029.35
2018-09-27T00:40:10.039Z,1029.31
2018-09-27T00:41:19.930Z,1029.27
2018-09-27T00:42:29.815Z,1029.28
2018-09-27T00:43:39.708Z,1029.21
2018-09-27T00:44:49.363Z,1029.25
2018-09-27T00:45:59.439Z,1029.25
2018-09-27T00:47:09.583Z,1029.24
2018-09-27T00:48:19.751Z,1029.25
2018-09-27T00:49:29.935Z,1029.19
2018-09-27T00:50:40.111Z,1029.16
2018-09-27T00:51:50.000Z,1029.17
2018-09-27T00:52:59.883Z,1029.18
2018-09-27T00:54:10.055Z,1029.17
2018-09-27T00:55:19.392Z,1029.18
2018-09-27T00:56:29.315Z,1029.2
2018-09-27T00:57:38.985Z,1029.19
2018-09-27T00:58:55.147Z,1029.16
2018-09-27T01:00:04.498Z,1029.17
2018-09-27T01:01:14.420Z,1029.21
2018-09-27T01:02:24.047Z,1029.19
2018-09-27T01:03:33.947Z,1029.2
2018-09-27T01:04:43.848Z,1029.22
2018-09-27T01:05:53.730Z,1029.2
2018-09-27T01:07:03.628Z,1029.28
2018-09-27T01:08:13.524Z,1029.25
2018-09-27T01:09:23.457Z,1029.19
2018-09-27T01:10:33.071Z,1029.18
2018-09-27T01:11:43.238Z,1029.21
2018-09-27T01:12:53.405Z,1029.23
2018-09-27T01:14:03.301Z,1029.23
2018-09-27T01:15:12.915Z,1029.22
2018-09-27T01:16:22.823Z,1029.25
2018-09-27T01:17:32.990Z,1029.2
2018-09-27T01:18:42.670Z,1029.2
2018-09-27T01:19:52.570Z,1029.19
2018-09-27T01:21:02.709Z,1029.22
2018-09-27T01:22:12.614Z,1029.18
2018-09-27T01:23:22.219Z,1029.23
2018-09-27T01:24:32.116Z,1029.17
2018-09-27T01:25:42.280Z,1029.19
2018-09-27T01:26:52.166Z,1029.19
2018-09-27T01:28:01.779Z,1029.19
2018-09-27T01:29:11.684Z,1029.2
2018-09-27T01:30:21.581Z,1029.19
2018-09-27T01:31:31.487Z,1029.14
2018-09-27T01:32:40.833Z,1029.17
2018-09-27T01:33:50.768Z,1029.19
2018-09-27T01:35:00.660Z,1029.11
2018-09-27T01:36:10.592Z,1029.12
2018-09-27T01:37:20.492Z,1029.1
2018-09-27T01:38:30.380Z,1029.09
2018-09-27T01:39:40.004Z,1029.09
2018-09-27T01:40:49.615Z,1029.1
2018-09-27T01:41:59.500Z,1029.09
2018-09-27T01:43:08.858Z,1029.09
2018-09-27T01:44:18.746Z,1029.12
2018-09-27T01:45:28.376Z,1029.07
2018-09-27T01:46:37.994Z,1029.11
2018-09-27T01:47:48.266Z,1029.12
2018-09-27T01:48:58.168Z,1029.09
2018-09-27T01:50:08.066Z,1029.07
2018-09-27T01:51:17.991Z,1029.05
2018-09-27T01:52:27.880Z,1029.08
2018-09-27T01:53:38.053Z,1029.06
2018-09-27T01:54:47.947Z,1029.05
2018-09-27T01:55:57.675Z,1029.06
2018-09-27T01:57:07.570Z,1029.05
2018-09-27T01:58:17.743Z,1029.01
2018-09-27T01:59:27.638Z,1029.04
2018-09-27T02:00:37.264Z,1029.07
2018-09-27T02:01:47.443Z,1029.07
2018-09-27T02:02:57.635Z,1029.1
2018-09-27T02:04:07.801Z,1029.06
2018-09-27T02:05:17.430Z,1029.06
2018-09-27T02:06:27.352Z,1029.09
2018-09-27T02:07:37.298Z,1029.08
2018-09-27T02:08:47.478Z,1029.04
2018-09-27T02:09:57.371Z,1029.02
2018-09-27T02:11:07.506Z,1029.01
2018-09-27T02:12:17.672Z,1028.98
2018-09-27T02:13:27.571Z,1029
2018-09-27T02:14:37.728Z,1029.03
2018-09-27T02:15:47.632Z,1029.01
2018-09-27T02:16:57.252Z,1029.01
2018-09-27T02:18:07.136Z,1029.01
2018-09-27T02:19:16.486Z,1028.97
2018-09-27T02:20:26.388Z,1028.96
2018-09-27T02:21:36.002Z,1028.98
2018-09-27T02:22:45.905Z,1028.98
2018-09-27T02:23:56.073Z,1028.95
2018-09-27T02:25:06.285Z,1028.96
2018-09-27T02:26:15.933Z,1028.94
2018-09-27T02:27:25.821Z,1028.9
2018-09-27T02:28:35.481Z,1028.86
2018-09-27T02:29:45.092Z,1028.88
2018-09-27T02:30:55.266Z,1028.89
2018-09-27T02:32:05.189Z,1028.87
2018-09-27T02:33:15.082Z,1028.79
2018-09-27T02:34:24.988Z,1028.79
2018-09-27T02:35:34.897Z,1028.86
2018-09-27T02:36:45.126Z,1028.8
2018-09-27T02:37:54.749Z,1028.79
2018-09-27T02:39:04.368Z,1028.82
2018-09-27T02:40:14.258Z,1028.81
2018-09-27T02:41:24.146Z,1028.83
2018-09-27T02:42:34.357Z,1028.84
2018-09-27T02:43:44.521Z,1028.85
2018-09-27T02:44:54.448Z,1028.85
2018-09-27T02:46:04.610Z,1028.87
2018-09-27T02:47:13.961Z,1028.81
2018-09-27T02:48:24.171Z,1028.82
2018-09-27T02:49:34.349Z,1028.83
2018-09-27T02:50:43.972Z,1028.82
2018-09-27T02:51:54.134Z,1028.84
2018-09-27T02:53:04.355Z,1028.77
2018-09-27T02:54:14.531Z,1028.8
2018-09-27T02:55:23.887Z,1028.81
2018-09-27T02:56:33.775Z,1028.76
2018-09-27T02:57:43.934Z,1028.77
2018-09-27T02:58:54.108Z,1028.72
2018-09-27T03:00:04.210Z,1028.73
2018-09-27T03:01:14.149Z,1028.7
2018-09-27T03:02:24.048Z,1028.74
2018-09-27T03:03:34.221Z,1028.75
2018-09-27T03:04:43.842Z,1028.76
2018-09-27T03:05:53.541Z,1028.72
2018-09-27T03:07:03.163Z,1028.77
2018-09-27T03:08:13.062Z,1028.73
2018-09-27T03:09:22.689Z,1028.75
2018-09-27T03:10:32.310Z,1028.74
2018-09-27T03:11:41.926Z,1028.73
2018-09-27T03:12:51.839Z,1028.75
2018-09-27T03:14:01.842Z,1028.71
2018-09-27T03:15:12.086Z,1028.72
2018-09-27T03:16:21.438Z,1028.68
2018-09-27T03:17:31.164Z,1028.71
2018-09-27T03:18:41.065Z,1028.71
2018-09-27T03:19:50.962Z,1028.7
2018-09-27T03:21:01.145Z,1028.65
2018-09-27T03:22:10.779Z,1028.65
2018-09-27T03:23:20.394Z,1028.65
2018-09-27T03:24:30.288Z,1028.57
2018-09-27T03:25:40.191Z,1028.59
2018-09-27T03:26:49.809Z,1028.58
2018-09-27T03:27:59.463Z,1028.6
2018-09-27T03:29:09.134Z,1028.58
2018-09-27T03:30:19.347Z,1028.57
2018-09-27T03:31:29.271Z,1028.58
2018-09-27T03:32:39.501Z,1028.6
2018-09-27T03:33:49.391Z,1028.56
2018-09-27T03:34:59.781Z,1028.58
2018-09-27T03:36:09.960Z,1028.53
2018-09-27T03:37:19.614Z,1028.55
2018-09-27T03:38:29.787Z,1028.57
2018-09-27T03:39:39.707Z,1028.56
2018-09-27T03:40:50.293Z,1028.56
2018-09-27T03:41:59.919Z,1028.53
2018-09-27T03:43:09.573Z,1028.57
2018-09-27T03:44:19.201Z,1028.53
2018-09-27T03:45:29.589Z,1028.51
2018-09-27T03:46:39.255Z,1028.51
2018-09-27T03:47:49.440Z,1028.52
2018-09-27T03:48:59.325Z,1028.5
2018-09-27T03:50:09.241Z,1028.51
2018-09-27T03:51:18.581Z,1028.52
2018-09-27T03:52:28.475Z,1028.57
2018-09-27T03:53:38.616Z,1028.53
2018-09-27T03:54:48.505Z,1028.55
2018-09-27T03:55:58.157Z,1028.54
2018-09-27T03:57:08.056Z,1028.51
2018-09-27T03:58:17.955Z,1028.46
2018-09-27T03:59:28.123Z,1028.46
2018-09-27T04:00:38.294Z,1028.43
2018-09-27T04:01:48.189Z,1028.44
2018-09-27T04:02:58.357Z,1028.44
2018-09-27T04:04:08.048Z,1028.41
2018-09-27T04:05:17.698Z,1028.45
2018-09-27T04:06:27.634Z,1028.45
2018-09-27T04:07:37.307Z,1028.43
2018-09-27T04:08:46.930Z,1028.48
2018-09-27T04:09:57.151Z,1028.47
2018-09-27T04:11:07.043Z,1028.52
2018-09-27T04:12:16.942Z,1028.52
2018-09-27T04:13:27.162Z,1028.5
2018-09-27T04:14:36.778Z,1028.52
2018-09-27T04:15:46.696Z,1028.51
2018-09-27T04:16:56.653Z,1028.51
2018-09-27T04:18:06.282Z,1028.45
2018-09-27T04:19:16.221Z,1028.42
2018-09-27T04:20:26.386Z,1028.39
2018-09-27T04:21:36.279Z,1028.35
2018-09-27T04:22:46.567Z,1028.36
2018-09-27T04:23:56.206Z,1028.38
2018-09-27T04:25:06.368Z,1028.39
2018-09-27T04:26:16.524Z,1028.36
2018-09-27T04:27:26.143Z,1028.46
2018-09-27T04:28:35.764Z,1028.44
2018-09-27T04:29:45.920Z,1028.42
2018-09-27T04:30:55.543Z,1028.41
2018-09-27T04:32:05.431Z,1028.42
2018-09-27T04:33:15.074Z,1028.38
2018-09-27T04:34:24.969Z,1028.37
2018-09-27T04:35:34.866Z,1028.36
2018-09-27T04:36:44.211Z,1028.39
2018-09-27T04:37:53.821Z,1028.4
2018-09-27T04:39:03.494Z,1028.4
2018-09-27T04:40:13.392Z,1028.37
2018-09-27T04:41:23.573Z,1028.36
2018-09-27T04:42:33.466Z,1028.38
2018-09-27T04:43:43.636Z,1028.34
2018-09-27T04:44:53.248Z,1028.34
2018-09-27T04:46:02.868Z,1028.29
2018-09-27T04:47:13.032Z,1028.33
2018-09-27T04:48:22.685Z,1028.27
2018-09-27T04:49:32.298Z,1028.32
2018-09-27T04:50:41.641Z,1028.31
2018-09-27T04:51:51.316Z,1028.32
2018-09-27T04:53:01.597Z,1028.3
2018-09-27T04:54:11.223Z,1028.3
2018-09-27T04:55:21.194Z,1028.27
2018-09-27T04:56:31.085Z,1028.28
2018-09-27T04:57:40.984Z,1028.3
2018-09-27T04:58:51.153Z,1028.28
2018-09-27T05:00:01.089Z,1028.33
2018-09-27T05:01:11.546Z,1028.31
2018-09-27T05:02:20.341Z,1028.35
2018-09-27T05:03:29.723Z,1028.34
2018-09-27T05:04:39.738Z,1028.28
2018-09-27T05:05:49.358Z,1028.29
2018-09-27T05:06:58.977Z,1028.25
2018-09-27T05:08:08.882Z,1028.28
2018-09-27T05:09:18.801Z,1028.33
2018-09-27T05:10:28.489Z,1028.37
2018-09-27T05:11:38.383Z,1028.42
2018-09-27T05:12:47.737Z,1028.38
2018-09-27T05:13:57.908Z,1028.41
2018-09-27T05:15:07.535Z,1028.45
2018-09-27T05:16:17.469Z,1028.45
2018-09-27T05:17:27.373Z,1028.42
2018-09-27T05:18:37.295Z,1028.44
2018-09-27T05:19:46.653Z,1028.38
2018-09-27T05:20:56.824Z,1028.42
2018-09-27T05:22:06.171Z,1028.35
2018-09-27T05:23:16.061Z,1028.36
2018-09-27T05:24:25.957Z,1028.38
2018-09-27T05:25:35.298Z,1028.3
2018-09-27T05:26:44.913Z,1028.3
2018-09-27T05:27:54.809Z,1028.27
2018-09-27T05:29:05.176Z,1028.32
2018-09-27T05:30:14.798Z,1028.34
2018-09-27T05:31:24.414Z,1028.36
2018-09-27T05:32:34.296Z,1028.37
2018-09-27T05:33:44.490Z,1028.38
2018-09-27T05:34:54.463Z,1028.34
2018-09-27T05:36:04.087Z,1028.36
2018-09-27T05:37:13.977Z,1028.34
2018-09-27T05:38:23.905Z,1028.29
2018-09-27T05:39:33.631Z,1028.32
2018-09-27T05:40:44.681Z,1028.37
2018-09-27T05:41:54.846Z,1028.4
2018-09-27T05:43:04.186Z,1028.38
2018-09-27T05:44:14.362Z,1028.38
2018-09-27T05:45:24.275Z,1028.41
2018-09-27T05:46:34.413Z,1028.4
2018-09-27T05:47:44.026Z,1028.42
2018-09-27T05:48:53.088Z,1028.37
2018-09-27T05:50:03.270Z,1028.39
2018-09-27T05:51:12.900Z,1028.39
2018-09-27T05:52:23.072Z,1028.4
2018-09-27T05:53:32.965Z,1028.37
2018-09-27T05:54:42.581Z,1028.4
2018-09-27T05:55:52.512Z,1028.43
2018-09-27T05:57:02.961Z,1028.38
2018-09-27T05:58:12.599Z,1028.39
2018-09-27T05:59:22.498Z,1028.44
2018-09-27T06:00:32.388Z,1028.44
2018-09-27T06:01:42.589Z,1028.43
2018-09-27T06:02:52.257Z,1028.45
2018-09-27T06:04:02.123Z,1028.45
2018-09-27T06:05:11.756Z,1028.42
2018-09-27T06:06:21.105Z,1028.4
2018-09-27T06:07:30.719Z,1028.4
2018-09-27T06:08:40.603Z,1028.36
2018-09-27T06:09:50.504Z,1028.36
2018-09-27T06:11:00.121Z,1028.34
2018-09-27T06:12:09.744Z,1028.35
2018-09-27T06:13:19.406Z,1028.32
2018-09-27T06:14:29.298Z,1028.3
2018-09-27T06:15:39.198Z,1028.3
2018-09-27T06:16:49.119Z,1028.27
2018-09-27T06:17:59.115Z,1028.24
2018-09-27T06:19:08.743Z,1028.26
2018-09-27T06:20:18.865Z,1028.23
2018-09-27T06:21:28.492Z,1028.22
2018-09-27T06:22:38.809Z,1028.23
2018-09-27T06:23:48.985Z,1028.22
2018-09-27T06:24:58.066Z,1028.23
2018-09-27T06:26:07.756Z,1028.2
2018-09-27T06:27:18.319Z,1028.19
2018-09-27T06:28:28.633Z,1028.24
2018-09-27T06:29:38.567Z,1028.21
2018-09-27T06:30:48.190Z,1028.18
2018-09-27T06:31:58.078Z,1028.17
2018-09-27T06:33:07.148Z,1028.17
2018-09-27T06:34:17.048Z,1028.16
2018-09-27T06:35:26.974Z,1028.16
2018-09-27T06:36:36.597Z,1028.17
2018-09-27T06:37:46.214Z,1028.15
2018-09-27T06:38:56.080Z,1028.18
2018-09-27T06:40:05.970Z,1028.18
2018-09-27T06:41:15.616Z,1028.17
2018-09-27T06:42:25.605Z,1028.14
2018-09-27T06:43:35.827Z,1028.16
2018-09-27T06:44:45.591Z,1028.17
2018-09-27T06:45:54.867Z,1028.14
2018-09-27T06:47:05.289Z,1028.15
2018-09-27T06:48:14.937Z,1028.12
2018-09-27T06:49:25.206Z,1028.08
2018-09-27T06:50:34.880Z,1028.1
2018-09-27T06:51:45.177Z,1028.13
2018-09-27T06:52:55.403Z,1028.15
2018-09-27T06:54:05.846Z,1028.18
2018-09-27T06:55:15.671Z,1028.12
2018-09-27T06:56:26.885Z,1028.13
2018-09-27T06:57:36.945Z,1028.13
2018-09-27T06:58:46.568Z,1028.12
2018-09-27T06:59:56.190Z,1028.12
2018-09-27T07:01:06.366Z,1028.14
2018-09-27T07:02:16.257Z,1028.14
2018-09-27T07:03:26.244Z,1028.14
2018-09-27T07:04:36.142Z,1028.17
2018-09-27T07:05:46.079Z,1028.12
2018-09-27T07:06:55.436Z,1028.11
2018-09-27T07:08:05.069Z,1028.07
2018-09-27T07:09:14.415Z,1028.06
2018-09-27T07:10:24.037Z,1028.03
2018-09-27T07:11:34.223Z,1028.01
2018-09-27T07:12:44.597Z,1028.06
2018-09-27T07:13:55.194Z,1028.06
2018-09-27T07:15:04.576Z,1028.07
2018-09-27T07:16:13.923Z,1028.08
2018-09-27T07:17:23.530Z,1028.1
2018-09-27T07:18:33.154Z,1028.1
2018-09-27T07:19:43.833Z,1028.13
2018-09-27T07:20:53.457Z,1028.14
2018-09-27T07:22:03.084Z,1028.1
2018-09-27T07:23:12.713Z,1028.09
2018-09-27T07:24:22.908Z,1028.1
2018-09-27T07:25:32.526Z,1028.11
2018-09-27T07:26:42.503Z,1028.05
2018-09-27T07:27:53.613Z,1028.03
2018-09-27T07:29:03.783Z,1027.99
2018-09-27T07:30:13.737Z,1027.97
2018-09-27T07:31:23.355Z,1027.98
2018-09-27T07:32:33.593Z,1027.96
2018-09-27T07:33:44.459Z,1027.99
2018-09-27T07:34:54.628Z,1027.96
2018-09-27T07:36:03.710Z,1027.92
2018-09-27T07:37:12.781Z,1027.94
2018-09-27T07:38:22.921Z,1027.93
2018-09-27T07:39:33.311Z,1027.99
2018-09-27T07:40:43.200Z,1027.98
2018-09-27T07:41:53.161Z,1027.98
2018-09-27T07:43:02.801Z,1027.98
2018-09-27T07:44:12.979Z,1027.97
2018-09-27T07:45:22.331Z,1027.99
2018-09-27T07:46:31.944Z,1027.98
2018-09-27T07:47:41.849Z,1028.03
2018-09-27T07:48:51.743Z,1028
2018-09-27T07:50:01.095Z,1027.99
2018-09-27T07:51:10.446Z,1027.98
2018-09-27T07:52:19.815Z,1027.98
2018-09-27T07:53:28.940Z,1028
2018-09-27T07:54:38.888Z,1028.01
2018-09-27T07:55:49.675Z,1027.95
2018-09-27T07:56:59.868Z,1027.98
2018-09-27T07:58:10.044Z,1027.97
2018-09-27T07:59:19.941Z,1027.97
2018-09-27T08:00:29.560Z,1027.97
2018-09-27T08:01:39.179Z,1027.99
2018-09-27T08:02:49.518Z,1027.93
2018-09-27T08:04:00.643Z,1027.97
2018-09-27T08:05:10.436Z,1027.99
2018-09-27T08:06:20.613Z,1027.99
2018-09-27T08:07:30.512Z,1027.99
2018-09-27T08:08:40.240Z,1028.01
2018-09-27T08:09:50.634Z,1028.02
2018-09-27T08:11:00.365Z,1028.01
2018-09-27T08:12:10.361Z,1028.01
2018-09-27T08:13:20.260Z,1027.98
2018-09-27T08:14:30.151Z,1027.91
2018-09-27T08:15:40.574Z,1027.93
2018-09-27T08:16:50.278Z,1027.87
2018-09-27T08:18:00.516Z,1027.9
2018-09-27T08:19:10.453Z,1027.89
2018-09-27T08:20:20.085Z,1027.86
2018-09-27T08:21:30.131Z,1027.86
2018-09-27T08:22:40.037Z,1027.83
2018-09-27T08:23:50.212Z,1027.85
2018-09-27T08:25:00.880Z,1027.79
2018-09-27T08:26:10.774Z,1027.81
2018-09-27T08:27:20.951Z,1027.82
2018-09-27T08:28:30.572Z,1027.83
2018-09-27T08:29:39.919Z,1027.83
2018-09-27T08:30:50.118Z,1027.82
2018-09-27T08:32:00.334Z,1027.78
2018-09-27T08:33:10.222Z,1027.8
2018-09-27T08:34:20.122Z,1027.81
2018-09-27T08:35:30.061Z,1027.8
2018-09-27T08:36:40.237Z,1027.77
2018-09-27T08:37:50.135Z,1027.78
2018-09-27T08:38:59.758Z,1027.74
2018-09-27T08:40:09.741Z,1027.71
2018-09-27T08:41:19.638Z,1027.74
2018-09-27T08:42:29.263Z,1027.73
2018-09-27T08:43:39.157Z,1027.73
2018-09-27T08:44:49.226Z,1027.68
2018-09-27T08:46:00.116Z,1027.68
2018-09-27T08:47:10.036Z,1027.67
2018-09-27T08:48:19.962Z,1027.7
2018-09-27T08:49:29.354Z,1027.66
2018-09-27T08:50:39.516Z,1027.69
2018-09-27T08:51:49.155Z,1027.71
2018-09-27T08:52:59.329Z,1027.74
2018-09-27T08:54:08.672Z,1027.73
2018-09-27T08:55:18.068Z,1027.75
2018-09-27T08:56:27.957Z,1027.74
2018-09-27T08:57:38.011Z,1027.7
2018-09-27T08:58:48.455Z,1027.68
2018-09-27T08:59:58.623Z,1027.69
2018-09-27T09:01:08.574Z,1027.67
2018-09-27T09:02:18.756Z,1027.64
2018-09-27T09:03:28.662Z,1027.59
2018-09-27T09:04:39.615Z,1027.56
2018-09-27T09:05:49.239Z,1027.57
2018-09-27T09:06:59.181Z,1027.57
2018-09-27T09:08:08.808Z,1027.54
2018-09-27T09:09:18.198Z,1027.56
2018-09-27T09:10:28.535Z,1027.51
2018-09-27T09:11:37.881Z,1027.52
2018-09-27T09:12:47.222Z,1027.48
2018-09-27T09:13:57.116Z,1027.5
2018-09-27T09:15:06.745Z,1027.46
2018-09-27T09:16:16.641Z,1027.43
2018-09-27T09:17:26.538Z,1027.42
2018-09-27T09:18:36.430Z,1027.44
2018-09-27T09:19:46.050Z,1027.38
2018-09-27T09:20:55.705Z,1027.43
2018-09-27T09:22:05.890Z,1027.4
2018-09-27T09:23:15.755Z,1027.36
2018-09-27T09:24:25.703Z,1027.38
2018-09-27T09:25:36.226Z,1027.31
2018-09-27T09:26:46.557Z,1027.36
2018-09-27T09:27:56.454Z,1027.29
2018-09-27T09:29:06.642Z,1027.27
2018-09-27T09:30:16.832Z,1027.24
2018-09-27T09:31:25.914Z,1027.22
2018-09-27T09:32:35.830Z,1027.24
2018-09-27T09:33:45.275Z,1027.19
2018-09-27T09:34:55.515Z,1027.16
2018-09-27T09:36:05.831Z,1027.16
2018-09-27T09:37:15.488Z,1027.15
2018-09-27T09:38:25.860Z,1027.12
2018-09-27T09:39:35.807Z,1027.17
2018-09-27T09:40:45.705Z,1027.1
2018-09-27T09:41:55.873Z,1027.14
2018-09-27T09:43:05.801Z,1027.13
2018-09-27T09:44:15.706Z,1027.12
2018-09-27T09:45:25.837Z,1027.11
2018-09-27T09:46:35.770Z,1027.13
2018-09-27T09:47:44.849Z,1027.11
2018-09-27T09:48:54.804Z,1027.13
2018-09-27T09:50:04.556Z,1027.1
2018-09-27T09:51:14.525Z,1027.07
2018-09-27T09:52:24.421Z,1027.05
2018-09-27T09:53:34.323Z,1027.05
2018-09-27T09:54:44.493Z,1027.04
2018-09-27T09:55:54.675Z,1027
2018-09-27T09:57:04.589Z,1027.01
2018-09-27T09:58:14.490Z,1027.04
2018-09-27T09:59:24.114Z,1027
2018-09-27T10:00:33.734Z,1027.05
2018-09-27T10:01:43.671Z,1026.95
2018-09-27T10:02:53.299Z,1026.95
2018-09-27T10:04:02.921Z,1026.93
2018-09-27T10:05:12.545Z,1026.88
2018-09-27T10:06:22.714Z,1026.94
2018-09-27T10:07:32.970Z,1026.96
2018-09-27T10:08:42.318Z,1026.91
2018-09-27T10:09:52.026Z,1026.91
2018-09-27T10:11:01.930Z,1026.9
2018-09-27T10:12:11.281Z,1026.92
2018-09-27T10:13:21.516Z,1026.88
2018-09-27T10:14:31.671Z,1026.88
2018-09-27T10:15:41.057Z,1026.91
2018-09-27T10:16:51.223Z,1026.89
2018-09-27T10:18:01.119Z,1026.84
2018-09-27T10:19:11.013Z,1026.86
2018-09-27T10:20:20.637Z,1026.9
2018-09-27T10:21:29.720Z,1026.89
2018-09-27T10:22:40.195Z,1026.87
2018-09-27T10:23:49.552Z,1026.87
2018-09-27T10:24:58.919Z,1026.84
2018-09-27T10:26:08.849Z,1026.86
2018-09-27T10:27:19.089Z,1026.86
2018-09-27T10:28:28.938Z,1026.87
2018-09-27T10:29:38.829Z,1026.88
2018-09-27T10:30:48.760Z,1026.82
2018-09-27T10:31:58.661Z,1026.81
2018-09-27T10:33:08.558Z,1026.78
2018-09-27T10:34:18.512Z,1026.82
2018-09-27T10:35:29.049Z,1026.8
2018-09-27T10:36:38.944Z,1026.77
2018-09-27T10:37:48.526Z,1026.73
2018-09-27T10:38:58.424Z,1026.7
2018-09-27T10:40:08.323Z,1026.71
2018-09-27T10:41:17.913Z,1026.7
2018-09-27T10:42:27.867Z,1026.68
2018-09-27T10:43:37.483Z,1026.7
2018-09-27T10:44:47.398Z,1026.62
2018-09-27T10:45:57.422Z,1026.66
2018-09-27T10:47:07.317Z,1026.68
2018-09-27T10:48:16.934Z,1026.62
2018-09-27T10:49:26.833Z,1026.58
2018-09-27T10:50:36.723Z,1026.6
2018-09-27T10:51:46.371Z,1026.57
2018-09-27T10:52:56.264Z,1026.58
2018-09-27T10:54:05.929Z,1026.57
2018-09-27T10:55:16.101Z,1026.58
2018-09-27T10:56:26.005Z,1026.59
2018-09-27T10:57:35.905Z,1026.52
2018-09-27T10:58:45.932Z,1026.56
2018-09-27T10:59:55.606Z,1026.54
2018-09-27T11:01:05.243Z,1026.52
2018-09-27T11:02:15.191Z,1026.5
2018-09-27T11:03:25.053Z,1026.49
2018-09-27T11:04:34.954Z,1026.47
2018-09-27T11:05:44.352Z,1026.4
2018-09-27T11:06:54.270Z,1026.32
2018-09-27T11:08:04.454Z,1026.33
2018-09-27T11:09:14.355Z,1026.32
2018-09-27T11:10:24.247Z,1026.29
2018-09-27T11:11:34.240Z,1026.31
2018-09-27T11:12:44.513Z,1026.25
2018-09-27T11:13:54.424Z,1026.28
2018-09-27T11:15:04.042Z,1026.34
2018-09-27T11:16:13.392Z,1026.31
2018-09-27T11:17:23.294Z,1026.31
2018-09-27T11:18:33.467Z,1026.27
2018-09-27T11:19:43.057Z,1026.26
2018-09-27T11:20:52.414Z,1026.35
2018-09-27T11:22:02.106Z,1026.27
2018-09-27T11:23:12.705Z,1026.3
2018-09-27T11:24:22.611Z,1026.35
2018-09-27T11:25:32.875Z,1026.29
2018-09-27T11:26:42.772Z,1026.27
2018-09-27T11:27:52.436Z,1026.25
2018-09-27T11:29:02.704Z,1026.21
2018-09-27T11:30:12.579Z,1026.2
2018-09-27T11:31:22.478Z,1026.23
2018-09-27T11:32:32.655Z,1026.15
2018-09-27T11:33:42.558Z,1026.09
2018-09-27T11:34:52.763Z,1026.19
2018-09-27T11:36:02.673Z,1026.12
2018-09-27T11:37:12.907Z,1026.16
2018-09-27T11:38:22.810Z,1026.11
2018-09-27T11:39:33.191Z,1026.1
2018-09-27T11:40:43.292Z,1026.07
2018-09-27T11:41:52.912Z,1026.08
2018-09-27T11:43:02.543Z,1026.1
2018-09-27T11:44:12.486Z,1026.06
2018-09-27T11:45:22.466Z,1026.05
2018-09-27T11:46:32.092Z,1026
2018-09-27T11:47:42.235Z,1025.96
2018-09-27T11:48:52.209Z,1025.92
2018-09-27T11:50:03.176Z,1025.9
2018-09-27T11:51:14.027Z,1025.92
2018-09-27T11:52:23.923Z,1025.87
2018-09-27T11:53:33.840Z,1025.81
2018-09-27T11:54:44.014Z,1025.8
2018-09-27T11:55:53.999Z,1025.81
2018-09-27T11:57:03.760Z,1025.76
2018-09-27T11:58:13.668Z,1025.76
2018-09-27T11:59:23.574Z,1025.78
2018-09-27T12:00:33.226Z,1025.67
2018-09-27T12:01:43.537Z,1025.65
2018-09-27T12:02:53.956Z,1025.68
2018-09-27T12:04:04.149Z,1025.63
2018-09-27T12:05:13.783Z,1025.61
2018-09-27T12:06:23.981Z,1025.56
2018-09-27T12:07:34.502Z,1025.54
2018-09-27T12:08:45.417Z,1025.55
2018-09-27T12:09:55.084Z,1025.52
2018-09-27T12:11:04.963Z,1025.51
2018-09-27T12:12:14.327Z,1025.53
2018-09-27T12:13:24.289Z,1025.55
2018-09-27T12:14:34.684Z,1025.51
2018-09-27T12:15:45.550Z,1025.52
2018-09-27T12:16:55.724Z,1025.46
2018-09-27T12:18:05.349Z,1025.45
2018-09-27T12:19:15.185Z,1025.41
2018-09-27T12:20:25.374Z,1025.38
2018-09-27T12:21:35.005Z,1025.38
2018-09-27T12:22:44.360Z,1025.4
2018-09-27T12:23:54.656Z,1025.37
2018-09-27T12:25:04.289Z,1025.35
2018-09-27T12:26:13.920Z,1025.29
2018-09-27T12:27:23.307Z,1025.27
2018-09-27T12:28:33.470Z,1025.31
2018-09-27T12:29:44.114Z,1025.28
2018-09-27T12:30:54.349Z,1025.25
2018-09-27T12:32:04.651Z,1025.25
2018-09-27T12:33:14.042Z,1025.17
2018-09-27T12:34:23.945Z,1025.18
2018-09-27T12:35:33.843Z,1025.18
2018-09-27T12:36:43.620Z,1025.14
2018-09-27T12:37:53.780Z,1025.07
2018-09-27T12:39:03.719Z,1025.08
2018-09-27T12:40:13.929Z,1025.07
2018-09-27T12:41:24.141Z,1025.05
2018-09-27T12:42:34.032Z,1025.07
2018-09-27T12:43:44.654Z,1024.96
2018-09-27T12:44:54.116Z,1025.06
2018-09-27T12:46:04.833Z,1024.98
2018-09-27T12:47:15.495Z,1024.97
2018-09-27T12:48:25.803Z,1024.97
2018-09-27T12:49:36.901Z,1024.93
2018-09-27T12:50:47.131Z,1024.91
2018-09-27T12:51:57.705Z,1024.87
2018-09-27T12:53:08.425Z,1024.86
2018-09-27T12:54:18.823Z,1024.81
2018-09-27T12:55:28.453Z,1024.79
2018-09-27T12:56:38.625Z,1024.76
2018-09-27T12:57:48.813Z,1024.76
2018-09-27T12:58:58.761Z,1024.78
2018-09-27T13:00:08.116Z,1024.68
2018-09-27T13:01:17.744Z,1024.75
2018-09-27T13:02:26.934Z,1024.75
2018-09-27T13:03:37.124Z,1024.69
2018-09-27T13:04:46.755Z,1024.7
2018-09-27T13:05:56.653Z,1024.68
2018-09-27T13:07:06.597Z,1024.59
2018-09-27T13:08:16.767Z,1024.6
2018-09-27T13:09:26.589Z,1024.65
2018-09-27T13:10:37.620Z,1024.62
2018-09-27T13:11:47.796Z,1024.64
2018-09-27T13:12:58.014Z,1024.63
2018-09-27T13:14:07.489Z,1024.58
2018-09-27T13:15:17.122Z,1024.59
2018-09-27T13:16:26.757Z,1024.6
2018-09-27T13:17:36.788Z,1024.55
2018-09-27T13:18:47.462Z,1024.5
2018-09-27T13:20:01.310Z,1024.45
2018-09-27T13:21:11.346Z,1024.47
2018-09-27T13:22:20.696Z,1024.45
2018-09-27T13:23:30.363Z,1024.45
2018-09-27T13:24:40.590Z,1024.45
2018-09-27T13:25:50.950Z,1024.38
2018-09-27T13:27:00.703Z,1024.41
2018-09-27T13:28:11.023Z,1024.41
2018-09-27T13:29:20.656Z,1024.35
2018-09-27T13:30:30.560Z,1024.35
2018-09-27T13:31:39.950Z,1024.33
2018-09-27T13:32:49.873Z,1024.39
2018-09-27T13:34:00.083Z,1024.39
2018-09-27T13:35:10.900Z,1024.31
2018-09-27T13:36:20.527Z,1024.31
2018-09-27T13:37:30.184Z,1024.19
2018-09-27T13:38:40.364Z,1024.22
2018-09-27T13:39:50.372Z,1024.19
2018-09-27T13:41:00.523Z,1024.15
2018-09-27T13:42:10.190Z,1024.17
2018-09-27T13:43:20.099Z,1024.16
2018-09-27T13:44:30.291Z,1024.12
2018-09-27T13:45:40.199Z,1024.08
2018-09-27T13:46:49.828Z,1024.08
2018-09-27T13:48:00.010Z,1024.06
2018-09-27T13:49:10.016Z,1024.05
2018-09-27T13:50:20.520Z,1024.07
2018-09-27T13:51:30.429Z,1024.06
2018-09-27T13:52:40.321Z,1024.08
2018-09-27T13:53:50.215Z,1023.97
2018-09-27T13:54:59.873Z,1023.99
2018-09-27T13:56:09.841Z,1024
2018-09-27T13:57:19.235Z,1023.93
2018-09-27T13:58:28.758Z,1023.91
2018-09-27T13:59:38.968Z,1023.88
2018-09-27T14:00:48.604Z,1023.89
2018-09-27T14:01:58.695Z,1023.98
2018-09-27T14:03:08.069Z,1023.89
2018-09-27T14:04:18.225Z,1023.83
2018-09-27T14:05:28.190Z,1023.81
2018-09-27T14:06:38.033Z,1023.85
2018-09-27T14:07:48.236Z,1023.81
2018-09-27T14:08:58.410Z,1023.77